sensor_id;sensor_type;location;lat;lon;timestamp;pressure;altitude;pressure_sealevel;temperature;humidity
15529;BME280;7866;52.280;9.500;2022-11-11T00:01:46;101447.09;;;11.90;69.66
15529;BME280;7866;52.280;9.500;2022-11-11T00:06:48;101448.59;;;11.92;69.80
15529;BME280;7866;52.280;9.500;2022-11-11T00:11:51;101460.72;;;11.96;69.71
15529;BME280;7866;52.280;9.500;2022-11-11T00:16:52;101463.41;;;11.96;69.21
15529;BME280;7866;52.280;9.500;2022-11-11T00:22:19;101461.34;;;11.90;69.81
15529;BME280;7866;52.280;9.500;2022-11-11T00:27:39;101467.19;;;12.03;69.33
15529;BME280;7866;52.280;9.500;2022-11-11T00:32:41;101463.50;;;12.04;69.07
15529;BME280;7866;52.280;9.500;2022-11-11T00:37:44;101461.91;;;12.12;69.11
15529;BME280;7866;52.280;9.500;2022-11-11T00:42:49;101454.16;;;12.08;68.43
15529;BME280;7866;52.280;9.500;2022-11-11T00:47:51;101463.50;;;12.04;68.63
15529;BME280;7866;52.280;9.500;2022-11-11T00:53:12;101465.97;;;12.16;68.24
15529;BME280;7866;52.280;9.500;2022-11-11T00:58:15;101469.66;;;12.15;68.20
15529;BME280;7866;52.280;9.500;2022-11-11T01:03:17;101458.09;;;12.14;68.26
15529;BME280;7866;52.280;9.500;2022-11-11T01:08:19;101479.09;;;12.19;67.89
15529;BME280;7866;52.280;9.500;2022-11-11T01:13:23;101480.56;;;12.13;67.80
15529;BME280;7866;52.280;9.500;2022-11-11T01:18:25;101479.94;;;12.19;67.93
15529;BME280;7866;52.280;9.500;2022-11-11T01:23:29;101496.44;;;12.06;68.44
15529;BME280;7866;52.280;9.500;2022-11-11T01:28:32;101496.28;;;12.08;68.42
15529;BME280;7866;52.280;9.500;2022-11-11T01:33:35;101497.13;;;12.08;68.29
15529;BME280;7866;52.280;9.500;2022-11-11T01:38:37;101495.72;;;12.04;68.24
15529;BME280;7866;52.280;9.500;2022-11-11T01:43:40;101495.34;;;11.99;68.51
15529;BME280;7866;52.280;9.500;2022-11-11T01:48:45;101500.72;;;11.99;68.48
15529;BME280;7866;52.280;9.500;2022-11-11T01:54:11;101500.72;;;11.99;68.45
15529;BME280;7866;52.280;9.500;2022-11-11T01:59:16;101496.44;;;12.06;67.79
15529;BME280;7866;52.280;9.500;2022-11-11T02:04:18;101478.84;;;11.94;68.26
15529;BME280;7866;52.280;9.500;2022-11-11T02:09:41;101474.91;;;11.89;68.52
15529;BME280;7866;52.280;9.500;2022-11-11T02:14:47;101472.22;;;11.89;68.64
15529;BME280;7866;52.280;9.500;2022-11-11T02:19:53;101464.47;;;11.86;68.30
15529;BME280;7866;52.280;9.500;2022-11-11T02:24:58;101478.16;;;11.82;68.28
15529;BME280;7866;52.280;9.500;2022-11-11T02:30:01;101482.69;;;11.82;68.18
15529;BME280;7866;52.280;9.500;2022-11-11T02:35:10;101460.25;;;11.83;68.26
15529;BME280;7866;52.280;9.500;2022-11-11T02:40:16;101486.50;;;11.89;68.21
15529;BME280;7866;52.280;9.500;2022-11-11T02:45:18;101502.84;;;11.96;67.35
15529;BME280;7866;52.280;9.500;2022-11-11T02:50:20;101515.03;;;11.90;67.60
15529;BME280;7866;52.280;9.500;2022-11-11T02:55:23;101517.59;;;11.82;68.00
15529;BME280;7866;52.280;9.500;2022-11-11T03:00:24;101518.16;;;11.86;68.20
15529;BME280;7866;52.280;9.500;2022-11-11T03:05:26;101509.66;;;11.80;67.90
15529;BME280;7866;52.280;9.500;2022-11-11T03:10:29;101489.09;;;11.71;68.40
15529;BME280;7866;52.280;9.500;2022-11-11T03:15:31;101482.78;;;11.63;68.93
15529;BME280;7866;52.280;9.500;2022-11-11T03:20:33;101475.47;;;11.55;69.26
15529;BME280;7866;52.280;9.500;2022-11-11T03:25:53;101464.03;;;11.53;68.53
15529;BME280;7866;52.280;9.500;2022-11-11T03:30:55;101457.13;;;11.50;69.13
15529;BME280;7866;52.280;9.500;2022-11-11T03:35:58;101461.22;;;11.54;68.56
15529;BME280;7866;52.280;9.500;2022-11-11T03:41:01;101452.78;;;11.49;68.94
15529;BME280;7866;52.280;9.500;2022-11-11T03:46:04;101455.59;;;11.48;68.46
15529;BME280;7866;52.280;9.500;2022-11-11T03:51:05;101457.38;;;11.29;69.27
15529;BME280;7866;52.280;9.500;2022-11-11T03:56:08;101460.31;;;11.26;69.42
15529;BME280;7866;52.280;9.500;2022-11-11T04:01:10;101454.97;;;11.26;69.50
15529;BME280;7866;52.280;9.500;2022-11-11T04:06:32;101453.41;;;11.24;69.25
15529;BME280;7866;52.280;9.500;2022-11-11T04:11:52;101477.41;;;11.25;69.57
15529;BME280;7866;52.280;9.500;2022-11-11T04:16:54;101479.22;;;11.25;69.17
15529;BME280;7866;52.280;9.500;2022-11-11T04:21:56;101474.06;;;11.14;69.54
15529;BME280;7866;52.280;9.500;2022-11-11T04:27:00;101486.31;;;11.16;69.47
15529;BME280;7866;52.280;9.500;2022-11-11T04:32:04;101501.28;;;11.09;69.69
15529;BME280;7866;52.280;9.500;2022-11-11T04:37:25;101499.03;;;11.04;69.31
15529;BME280;7866;52.280;9.500;2022-11-11T04:42:30;101501.31;;;10.99;69.81
15529;BME280;7866;52.280;9.500;2022-11-11T04:47:32;101505.66;;;11.00;69.27
15529;BME280;7866;52.280;9.500;2022-11-11T04:52:33;101508.38;;;10.91;69.92
15529;BME280;7866;52.280;9.500;2022-11-11T04:57:40;101501.72;;;11.04;69.91
15529;BME280;7866;52.280;9.500;2022-11-11T05:02:42;101515.00;;;11.06;69.63
15529;BME280;7866;52.280;9.500;2022-11-11T05:08:01;101502.56;;;11.15;68.91
15529;BME280;7866;52.280;9.500;2022-11-11T05:13:21;101504.34;;;11.24;68.98
15529;BME280;7866;52.280;9.500;2022-11-11T05:18:40;101510.44;;;11.16;69.22
15529;BME280;7866;52.280;9.500;2022-11-11T05:24:11;101519.47;;;11.15;69.50
15529;BME280;7866;52.280;9.500;2022-11-11T05:29:31;101512.16;;;11.07;69.88
15529;BME280;7866;52.280;9.500;2022-11-11T05:34:33;101520.34;;;11.06;69.43
15529;BME280;7866;52.280;9.500;2022-11-11T05:39:34;101531.50;;;11.01;69.91
15529;BME280;7866;52.280;9.500;2022-11-11T05:44:38;101534.03;;;10.83;70.76
15529;BME280;7866;52.280;9.500;2022-11-11T05:49:40;101532.22;;;10.84;70.33
15529;BME280;7866;52.280;9.500;2022-11-11T05:54:42;101538.41;;;10.75;70.74
15529;BME280;7866;52.280;9.500;2022-11-11T05:59:45;101544.31;;;10.69;70.38
15529;BME280;7866;52.280;9.500;2022-11-11T06:04:47;101545.91;;;10.62;70.77
15529;BME280;7866;52.280;9.500;2022-11-11T06:09:49;101530.38;;;10.55;71.01
15529;BME280;7866;52.280;9.500;2022-11-11T06:14:52;101537.56;;;10.65;71.14
15529;BME280;7866;52.280;9.500;2022-11-11T06:19:53;101537.16;;;10.69;70.26
15529;BME280;7866;52.280;9.500;2022-11-11T06:24:55;101533.91;;;10.66;70.41
15529;BME280;7866;52.280;9.500;2022-11-11T06:30:19;101545.75;;;10.73;70.18
15529;BME280;7866;52.280;9.500;2022-11-11T06:35:20;101553.94;;;10.71;70.79
15529;BME280;7866;52.280;9.500;2022-11-11T06:40:22;101549.00;;;10.67;70.95
15529;BME280;7866;52.280;9.500;2022-11-11T06:45:26;101545.06;;;10.71;70.22
15529;BME280;7866;52.280;9.500;2022-11-11T06:50:28;101541.25;;;10.73;70.47
15529;BME280;7866;52.280;9.500;2022-11-11T06:55:30;101543.63;;;10.76;70.10
15529;BME280;7866;52.280;9.500;2022-11-11T07:00:33;101552.22;;;10.80;70.55
15529;BME280;7866;52.280;9.500;2022-11-11T07:05:35;101545.19;;;10.89;70.55
15529;BME280;7866;52.280;9.500;2022-11-11T07:10:38;101557.19;;;10.94;70.10
15529;BME280;7866;52.280;9.500;2022-11-11T07:15:42;101543.19;;;11.00;69.64
15529;BME280;7866;52.280;9.500;2022-11-11T07:20:44;101534.59;;;11.06;69.56
15529;BME280;7866;52.280;9.500;2022-11-11T07:25:46;101542.22;;;11.01;69.36
15529;BME280;7866;52.280;9.500;2022-11-11T07:30:49;101564.78;;;11.08;69.54
15529;BME280;7866;52.280;9.500;2022-11-11T07:35:50;101567.91;;;11.14;69.65
15529;BME280;7866;52.280;9.500;2022-11-11T07:40:52;101589.19;;;11.15;69.23
15529;BME280;7866;52.280;9.500;2022-11-11T07:45:55;101589.03;;;11.17;69.18
15529;BME280;7866;52.280;9.500;2022-11-11T07:50:57;101582.84;;;11.16;69.50
15529;BME280;7866;52.280;9.500;2022-11-11T07:55:59;101591.59;;;11.18;69.36
15529;BME280;7866;52.280;9.500;2022-11-11T08:01:02;101581.00;;;11.17;69.51
15529;BME280;7866;52.280;9.500;2022-11-11T08:06:04;101584.25;;;11.20;69.15
15529;BME280;7866;52.280;9.500;2022-11-11T08:11:05;101588.34;;;11.15;69.75
15529;BME280;7866;52.280;9.500;2022-11-11T08:16:10;101580.44;;;11.23;69.04
15529;BME280;7866;52.280;9.500;2022-11-11T08:21:12;101580.28;;;11.34;69.31
15529;BME280;7866;52.280;9.500;2022-11-11T08:26:14;101591.41;;;11.49;68.46
15529;BME280;7866;52.280;9.500;2022-11-11T08:31:17;101597.59;;;11.59;68.40
15529;BME280;7866;52.280;9.500;2022-11-11T08:36:19;101610.13;;;11.78;67.84
15529;BME280;7866;52.280;9.500;2022-11-11T08:41:22;101610.00;;;11.89;67.39
15529;BME280;7866;52.280;9.500;2022-11-11T08:46:26;101604.03;;;11.95;67.68
15529;BME280;7866;52.280;9.500;2022-11-11T08:51:27;101604.13;;;12.03;67.78
15529;BME280;7866;52.280;9.500;2022-11-11T08:56:29;101605.81;;;12.04;67.64
15529;BME280;7866;52.280;9.500;2022-11-11T09:01:32;101580.81;;;12.04;67.84
15529;BME280;7866;52.280;9.500;2022-11-11T09:06:33;101589.41;;;12.07;67.59
15529;BME280;7866;52.280;9.500;2022-11-11T09:11:35;101614.63;;;12.24;67.12
15529;BME280;7866;52.280;9.500;2022-11-11T09:16:38;101640.16;;;12.38;66.91
15529;BME280;7866;52.280;9.500;2022-11-11T09:21:40;101644.50;;;12.49;66.79
15529;BME280;7866;52.280;9.500;2022-11-11T09:26:41;101654.28;;;12.40;66.61
15529;BME280;7866;52.280;9.500;2022-11-11T09:31:45;101650.06;;;12.38;67.23
15529;BME280;7866;52.280;9.500;2022-11-11T09:36:47;101644.50;;;12.49;66.60
15529;BME280;7866;52.280;9.500;2022-11-11T09:41:57;101658.06;;;12.47;67.21
15529;BME280;7866;52.280;9.500;2022-11-11T09:47:04;101663.53;;;12.55;67.07
15529;BME280;7866;52.280;9.500;2022-11-11T09:52:13;101672.72;;;12.63;66.18
15529;BME280;7866;52.280;9.500;2022-11-11T09:57:22;101671.75;;;12.81;66.34
15529;BME280;7866;52.280;9.500;2022-11-11T10:02:34;101673.06;;;12.95;66.14
15529;BME280;7866;52.280;9.500;2022-11-11T10:07:43;101669.31;;;13.06;65.82
15529;BME280;7866;52.280;9.500;2022-11-11T10:12:49;101671.13;;;13.33;65.43
15529;BME280;7866;52.280;9.500;2022-11-11T10:18:04;101676.59;;;13.41;65.52
15529;BME280;7866;52.280;9.500;2022-11-11T10:23:13;101687.00;;;13.62;64.67
15529;BME280;7866;52.280;9.500;2022-11-11T10:28:18;101691.22;;;13.83;64.15
15529;BME280;7866;52.280;9.500;2022-11-11T10:33:23;101693.06;;;14.08;63.38
15529;BME280;7866;52.280;9.500;2022-11-11T10:38:34;101696.13;;;14.13;62.84
15529;BME280;7866;52.280;9.500;2022-11-11T10:43:44;101699.59;;;14.32;62.99
15529;BME280;7866;52.280;9.500;2022-11-11T10:48:53;101692.59;;;14.47;62.08
15529;BME280;7866;52.280;9.500;2022-11-11T10:54:03;101700.94;;;14.53;61.53
15529;BME280;7866;52.280;9.500;2022-11-11T10:59:12;101706.72;;;14.75;61.62
15529;BME280;7866;52.280;9.500;2022-11-11T11:04:23;101701.34;;;14.75;61.45
15529;BME280;7866;52.280;9.500;2022-11-11T11:09:30;101703.75;;;14.86;60.42
15529;BME280;7866;52.280;9.500;2022-11-11T11:14:38;101697.38;;;15.03;60.98
15529;BME280;7866;52.280;9.500;2022-11-11T11:19:43;101697.72;;;15.00;60.70
15529;BME280;7866;52.280;9.500;2022-11-11T11:24:45;101683.38;;;15.00;60.68
15529;BME280;7866;52.280;9.500;2022-11-11T11:29:47;101688.63;;;15.10;60.60
15529;BME280;7866;52.280;9.500;2022-11-11T11:34:51;101677.50;;;15.13;60.57
15529;BME280;7866;52.280;9.500;2022-11-11T11:39:58;101668.41;;;15.22;60.22
15529;BME280;7866;52.280;9.500;2022-11-11T11:45:20;101658.47;;;15.31;58.34
15529;BME280;7866;52.280;9.500;2022-11-11T11:50:36;101661.50;;;15.36;57.12
15529;BME280;7866;52.280;9.500;2022-11-11T11:55:43;101664.69;;;15.47;58.24
15529;BME280;7866;52.280;9.500;2022-11-11T12:00:55;101669.63;;;15.60;57.41
15529;BME280;7866;52.280;9.500;2022-11-11T12:06:03;101672.16;;;15.78;57.69
15529;BME280;7866;52.280;9.500;2022-11-11T12:11:12;101677.38;;;15.88;57.91
15529;BME280;7866;52.280;9.500;2022-11-11T12:16:23;101689.16;;;16.11;57.36
15529;BME280;7866;52.280;9.500;2022-11-11T12:21:33;101691.69;;;16.13;57.23
15529;BME280;7866;52.280;9.500;2022-11-11T12:26:42;101690.34;;;16.17;56.96
15529;BME280;7866;52.280;9.500;2022-11-11T12:31:57;101694.16;;;16.31;54.80
15529;BME280;7866;52.280;9.500;2022-11-11T12:37:10;101705.75;;;16.47;55.51
15529;BME280;7866;52.280;9.500;2022-11-11T12:42:24;101710.81;;;16.59;56.11
15529;BME280;7866;52.280;9.500;2022-11-11T12:47:36;101705.06;;;16.62;56.40
15529;BME280;7866;52.280;9.500;2022-11-11T12:52:51;101706.72;;;16.63;56.37
15529;BME280;7866;52.280;9.500;2022-11-11T12:58:06;101710.78;;;16.67;54.48
15529;BME280;7866;52.280;9.500;2022-11-11T13:03:21;101699.25;;;16.81;54.77
15529;BME280;7866;52.280;9.500;2022-11-11T13:08:54;101705.75;;;16.95;54.04
15529;BME280;7866;52.280;9.500;2022-11-11T13:14:10;101704.50;;;16.74;53.86
15529;BME280;7866;52.280;9.500;2022-11-11T13:19:18;101710.13;;;16.73;56.55
15529;BME280;7866;52.280;9.500;2022-11-11T13:24:25;101724.31;;;16.59;56.56
15529;BME280;7866;52.280;9.500;2022-11-11T13:29:53;101719.28;;;16.56;56.65
15529;BME280;7866;52.280;9.500;2022-11-11T13:34:59;101723.41;;;16.27;58.83
15529;BME280;7866;52.280;9.500;2022-11-11T13:40:05;101720.69;;;16.35;57.53
15529;BME280;7866;52.280;9.500;2022-11-11T13:45:21;101717.84;;;16.29;56.66
15529;BME280;7866;52.280;9.500;2022-11-11T13:50:27;101720.19;;;16.32;57.44
15529;BME280;7866;52.280;9.500;2022-11-11T13:55:33;101726.59;;;16.31;56.84
15529;BME280;7866;52.280;9.500;2022-11-11T14:00:37;101726.84;;;15.96;58.81
15529;BME280;7866;52.280;9.500;2022-11-11T14:05:39;101743.75;;;15.74;58.88
15529;BME280;7866;52.280;9.500;2022-11-11T14:10:50;101738.63;;;15.55;59.58
15529;BME280;7866;52.280;9.500;2022-11-11T14:15:52;101731.84;;;15.26;60.96
15529;BME280;7866;52.280;9.500;2022-11-11T14:20:55;101732.84;;;15.25;60.16
15529;BME280;7866;52.280;9.500;2022-11-11T14:26:25;101736.84;;;15.05;60.95
15529;BME280;7866;52.280;9.500;2022-11-11T14:37:16;101732.97;;;14.57;62.50
15529;BME280;7866;52.280;9.500;2022-11-11T14:42:45;101727.50;;;14.83;60.89
15529;BME280;7866;52.280;9.500;2022-11-11T14:47:47;101728.91;;;14.52;61.96
15529;BME280;7866;52.280;9.500;2022-11-11T14:52:50;101735.41;;;14.24;63.13
15529;BME280;7866;52.280;9.500;2022-11-11T14:57:58;101735.97;;;14.01;63.65
15529;BME280;7866;52.280;9.500;2022-11-11T15:03:07;101729.44;;;13.86;63.90
15529;BME280;7866;52.280;9.500;2022-11-11T15:08:16;101734.47;;;13.81;63.55
15529;BME280;7866;52.280;9.500;2022-11-11T15:13:37;101730.31;;;13.69;63.92
15529;BME280;7866;52.280;9.500;2022-11-11T15:18:55;101726.94;;;13.67;63.28
15529;BME280;7866;52.280;9.500;2022-11-11T15:24:09;101724.31;;;13.75;62.46
15529;BME280;7866;52.280;9.500;2022-11-11T15:29:32;101725.06;;;13.67;62.72
15529;BME280;7866;52.280;9.500;2022-11-11T15:34:42;101727.06;;;13.83;61.88
15529;BME280;7866;52.280;9.500;2022-11-11T15:39:48;101724.84;;;13.43;63.07
15529;BME280;7866;52.280;9.500;2022-11-11T15:44:53;101720.94;;;13.37;63.25
15529;BME280;7866;52.280;9.500;2022-11-11T15:49:55;101719.88;;;13.30;63.29
15529;BME280;7866;52.280;9.500;2022-11-11T15:54:58;101727.00;;;13.39;63.05
15529;BME280;7866;52.280;9.500;2022-11-11T16:00:23;101729.84;;;13.55;62.00
15529;BME280;7866;52.280;9.500;2022-11-11T16:05:27;101731.47;;;13.48;62.29
15529;BME280;7866;52.280;9.500;2022-11-11T16:10:31;101741.72;;;13.17;62.99
15529;BME280;7866;52.280;9.500;2022-11-11T16:15:40;101741.03;;;12.88;63.85
15529;BME280;7866;52.280;9.500;2022-11-11T16:20:46;101754.44;;;12.97;63.87
15529;BME280;7866;52.280;9.500;2022-11-11T16:25:49;101753.63;;;12.60;64.60
15529;BME280;7866;52.280;9.500;2022-11-11T16:30:53;101760.78;;;12.41;65.43
15529;BME280;7866;52.280;9.500;2022-11-11T16:36:06;101753.63;;;12.60;64.68
15529;BME280;7866;52.280;9.500;2022-11-11T16:41:23;101751.50;;;12.63;64.32
15529;BME280;7866;52.280;9.500;2022-11-11T16:46:44;101751.66;;;12.62;64.13
15529;BME280;7866;52.280;9.500;2022-11-11T16:51:47;101748.88;;;12.81;62.96
15529;BME280;7866;52.280;9.500;2022-11-11T16:56:50;101745.38;;;12.71;63.17
15529;BME280;7866;52.280;9.500;2022-11-11T17:01:55;101750.69;;;12.80;62.83
15529;BME280;7866;52.280;9.500;2022-11-11T17:06:58;101750.19;;;12.77;62.35
15529;BME280;7866;52.280;9.500;2022-11-11T17:11:59;101751.91;;;12.96;61.64
15529;BME280;7866;52.280;9.500;2022-11-11T17:17:04;101752.31;;;13.01;61.27
15529;BME280;7866;52.280;9.500;2022-11-11T17:22:09;101752.16;;;13.02;61.09
15529;BME280;7866;52.280;9.500;2022-11-11T17:27:11;101755.44;;;12.96;61.25
15529;BME280;7866;52.280;9.500;2022-11-11T17:32:14;101762.25;;;12.91;61.15
15529;BME280;7866;52.280;9.500;2022-11-11T17:37:16;101757.53;;;12.75;61.50
15529;BME280;7866;52.280;9.500;2022-11-11T17:42:18;101772.75;;;12.84;61.70
15529;BME280;7866;52.280;9.500;2022-11-11T17:47:21;101761.97;;;12.56;62.07
15529;BME280;7866;52.280;9.500;2022-11-11T17:52:22;101766.31;;;12.77;61.80
15529;BME280;7866;52.280;9.500;2022-11-11T17:57:24;101780.66;;;12.48;62.26
15529;BME280;7866;52.280;9.500;2022-11-11T18:02:27;101775.78;;;12.24;63.30
15529;BME280;7866;52.280;9.500;2022-11-11T18:07:29;101775.41;;;12.66;61.52
15529;BME280;7866;52.280;9.500;2022-11-11T18:12:31;101779.28;;;12.44;62.16
15529;BME280;7866;52.280;9.500;2022-11-11T18:17:34;101787.75;;;12.49;61.92
15529;BME280;7866;52.280;9.500;2022-11-11T18:22:35;101774.13;;;12.61;61.38
15529;BME280;7866;52.280;9.500;2022-11-11T18:27:37;101789.38;;;12.70;61.40
15529;BME280;7866;52.280;9.500;2022-11-11T18:32:40;101784.56;;;12.73;61.15
15529;BME280;7866;52.280;9.500;2022-11-11T18:37:41;101790.91;;;12.82;60.98
15529;BME280;7866;52.280;9.500;2022-11-11T18:42:43;101793.75;;;12.71;61.43
15529;BME280;7866;52.280;9.500;2022-11-11T18:47:47;101799.59;;;12.56;62.30
15529;BME280;7866;52.280;9.500;2022-11-11T18:52:48;101802.59;;;12.53;62.27
15529;BME280;7866;52.280;9.500;2022-11-11T18:57:50;101794.94;;;12.58;62.12
15529;BME280;7866;52.280;9.500;2022-11-11T19:02:53;101794.38;;;12.65;61.77
15529;BME280;7866;52.280;9.500;2022-11-11T19:07:55;101799.63;;;12.47;62.42
15529;BME280;7866;52.280;9.500;2022-11-11T19:12:56;101804.44;;;12.43;62.60
15529;BME280;7866;52.280;9.500;2022-11-11T19:18:00;101815.91;;;12.45;62.64
15529;BME280;7866;52.280;9.500;2022-11-11T19:23:02;101810.31;;;12.29;63.38
15529;BME280;7866;52.280;9.500;2022-11-11T19:28:04;101820.88;;;12.30;62.96
15529;BME280;7866;52.280;9.500;2022-11-11T19:33:09;101829.50;;;12.34;62.82
15529;BME280;7866;52.280;9.500;2022-11-11T19:38:10;101819.34;;;12.08;63.24
15529;BME280;7866;52.280;9.500;2022-11-11T19:43:12;101814.53;;;12.22;62.98
15529;BME280;7866;52.280;9.500;2022-11-11T19:48:15;101822.63;;;12.02;63.84
15529;BME280;7866;52.280;9.500;2022-11-11T19:53:17;101833.50;;;12.11;63.52
15529;BME280;7866;52.280;9.500;2022-11-11T19:58:19;101830.97;;;11.90;64.07
15529;BME280;7866;52.280;9.500;2022-11-11T20:03:22;101823.88;;;11.89;64.40
15529;BME280;7866;52.280;9.500;2022-11-11T20:08:24;101823.59;;;11.82;64.40
15529;BME280;7866;52.280;9.500;2022-11-11T20:13:26;101829.69;;;11.94;63.45
15529;BME280;7866;52.280;9.500;2022-11-11T20:18:30;101836.75;;;11.95;63.89
15529;BME280;7866;52.280;9.500;2022-11-11T20:23:34;101838.13;;;11.70;64.77
15529;BME280;7866;52.280;9.500;2022-11-11T20:28:37;101853.09;;;11.82;64.09
15529;BME280;7866;52.280;9.500;2022-11-11T20:33:41;101848.41;;;11.55;65.18
15529;BME280;7866;52.280;9.500;2022-11-11T20:38:43;101854.78;;;11.14;66.33
15529;BME280;7866;52.280;9.500;2022-11-11T20:43:45;101849.09;;;10.97;67.54
15529;BME280;7866;52.280;9.500;2022-11-11T20:48:49;101855.78;;;10.82;68.25
15529;BME280;7866;52.280;9.500;2022-11-11T20:53:52;101854.78;;;10.83;67.78
15529;BME280;7866;52.280;9.500;2022-11-11T20:58:54;101864.66;;;10.82;67.43
15529;BME280;7866;52.280;9.500;2022-11-11T21:03:58;101857.69;;;10.70;67.73
15529;BME280;7866;52.280;9.500;2022-11-11T21:09:02;101867.09;;;10.65;67.97
15529;BME280;7866;52.280;9.500;2022-11-11T21:14:04;101865.75;;;10.49;69.07
15529;BME280;7866;52.280;9.500;2022-11-11T21:19:08;101861.66;;;10.76;67.43
15529;BME280;7866;52.280;9.500;2022-11-11T21:24:10;101853.00;;;10.63;67.96
15529;BME280;7866;52.280;9.500;2022-11-11T21:29:12;101860.88;;;10.64;68.19
15529;BME280;7866;52.280;9.500;2022-11-11T21:34:15;101854.97;;;10.40;68.58
15529;BME280;7866;52.280;9.500;2022-11-11T21:39:17;101862.94;;;10.51;68.77
15529;BME280;7866;52.280;9.500;2022-11-11T21:44:19;101857.50;;;10.41;68.94
15529;BME280;7866;52.280;9.500;2022-11-11T21:49:22;101859.13;;;10.32;68.79
15529;BME280;7866;52.280;9.500;2022-11-11T21:54:23;101864.19;;;10.26;69.07
15529;BME280;7866;52.280;9.500;2022-11-11T21:59:25;101871.50;;;10.12;70.21
15529;BME280;7866;52.280;9.500;2022-11-11T22:04:28;101877.81;;;10.11;70.36
15529;BME280;7866;52.280;9.500;2022-11-11T22:09:30;101871.28;;;10.04;70.20
15529;BME280;7866;52.280;9.500;2022-11-11T22:14:32;101863.75;;;10.09;70.22
15529;BME280;7866;52.280;9.500;2022-11-11T22:19:35;101872.88;;;10.07;70.27
15529;BME280;7866;52.280;9.500;2022-11-11T22:24:36;101876.38;;;10.07;70.38
15529;BME280;7866;52.280;9.500;2022-11-11T22:29:38;101883.13;;;10.02;70.39
15529;BME280;7866;52.280;9.500;2022-11-11T22:34:41;101866.53;;;10.08;69.91
15529;BME280;7866;52.280;9.500;2022-11-11T22:39:42;101867.19;;;10.21;70.11
15529;BME280;7866;52.280;9.500;2022-11-11T22:44:44;101873.25;;;10.34;69.63
15529;BME280;7866;52.280;9.500;2022-11-11T22:49:47;101864.59;;;10.73;67.42
15529;BME280;7866;52.280;9.500;2022-11-11T22:54:49;101862.94;;;10.51;68.06
15529;BME280;7866;52.280;9.500;2022-11-11T22:59:50;101870.75;;;10.64;68.40
15529;BME280;7866;52.280;9.500;2022-11-11T23:04:53;101865.06;;;10.78;67.06
15529;BME280;7866;52.280;9.500;2022-11-11T23:09:55;101871.72;;;10.83;66.76
15529;BME280;7866;52.280;9.500;2022-11-11T23:14:57;101877.44;;;11.00;66.26
15529;BME280;7866;52.280;9.500;2022-11-11T23:20:00;101870.31;;;11.10;65.89
15529;BME280;7866;52.280;9.500;2022-11-11T23:25:01;101876.25;;;11.14;65.72
15529;BME280;7866;52.280;9.500;2022-11-11T23:30:04;101877.97;;;11.24;64.62
15529;BME280;7866;52.280;9.500;2022-11-11T23:35:07;101880.03;;;11.11;65.18
15529;BME280;7866;52.280;9.500;2022-11-11T23:40:10;101879.03;;;11.12;65.28
15529;BME280;7866;52.280;9.500;2022-11-11T23:45:12;101885.63;;;11.39;63.82
15529;BME280;7866;52.280;9.500;2022-11-11T23:50:16;101888.00;;;11.32;63.88
15529;BME280;7866;52.280;9.500;2022-11-11T23:55:17;101898.84;;;11.21;63.59
